sensor_id;sensor_type;location;lat;lon;timestamp;temperature;humidity
31391;DHT22;18022;45.492;11.548;2022-09-17T07:00:49;15.30;99.90
31391;DHT22;18022;45.492;11.548;2022-09-17T07:03:15;15.40;99.90
31391;DHT22;18022;45.492;11.548;2022-09-17T07:05:42;15.30;99.90
31391;DHT22;18022;45.492;11.548;2022-09-17T07:08:09;15.30;99.90
31391;DHT22;18022;45.492;11.548;2022-09-17T07:10:36;15.40;99.90
31391;DHT22;18022;45.492;11.548;2022-09-17T07:13:02;15.40;99.90
31391;DHT22;18022;45.492;11.548;2022-09-17T07:15:28;15.40;99.90
31391;DHT22;18022;45.492;11.548;2022-09-17T07:17:54;15.30;99.90
31391;DHT22;18022;45.492;11.548;2022-09-17T07:20:20;15.40;99.90
31391;DHT22;18022;45.492;11.548;2022-09-17T07:22:54;15.40;99.90
31391;DHT22;18022;45.492;11.548;2022-09-17T07:25:22;15.40;99.90
31391;DHT22;18022;45.492;11.548;2022-09-17T07:27:49;15.50;99.90
31391;DHT22;18022;45.492;11.548;2022-09-17T07:30:15;15.50;99.90
31391;DHT22;18022;45.492;11.548;2022-09-17T07:32:40;15.50;99.90
31391;DHT22;18022;45.492;11.548;2022-09-17T07:35:07;15.40;99.90
31391;DHT22;18022;45.492;11.548;2022-09-17T07:37:32;15.50;99.90
31391;DHT22;18022;45.492;11.548;2022-09-17T07:39:58;15.20;99.90
31391;DHT22;18022;45.492;11.548;2022-09-17T07:42:24;15.20;99.90
31391;DHT22;18022;45.492;11.548;2022-09-17T07:44:50;15.10;99.90
31391;DHT22;18022;45.492;11.548;2022-09-17T07:47:15;15.20;99.90
31391;DHT22;18022;45.492;11.548;2022-09-17T07:49:41;15.20;99.90
31391;DHT22;18022;45.492;11.548;2022-09-17T07:52:07;15.30;99.90
31391;DHT22;18022;45.492;11.548;2022-09-17T07:54:33;15.40;99.90
31391;DHT22;18022;45.492;11.548;2022-09-17T07:56:59;15.40;99.90
31391;DHT22;18022;45.492;11.548;2022-09-17T07:59:25;15.40;99.90
31391;DHT22;18022;45.492;11.548;2022-09-17T08:01:51;15.30;99.90
31391;DHT22;18022;45.492;11.548;2022-09-17T08:04:17;15.30;99.90
31391;DHT22;18022;45.492;11.548;2022-09-17T08:06:42;15.30;99.90
31391;DHT22;18022;45.492;11.548;2022-09-17T08:09:12;15.40;99.90
31391;DHT22;18022;45.492;11.548;2022-09-17T08:11:40;15.20;99.90
31391;DHT22;18022;45.492;11.548;2022-09-17T08:14:13;15.10;99.90
31391;DHT22;18022;45.492;11.548;2022-09-17T08:16:39;15.00;99.90
31391;DHT22;18022;45.492;11.548;2022-09-17T08:19:05;15.20;99.90
31391;DHT22;18022;45.492;11.548;2022-09-17T08:21:31;15.00;99.90
31391;DHT22;18022;45.492;11.548;2022-09-17T08:23:57;15.10;99.90
31391;DHT22;18022;45.492;11.548;2022-09-17T08:26:23;15.00;99.90
31391;DHT22;18022;45.492;11.548;2022-09-17T08:28:53;15.00;99.90
31391;DHT22;18022;45.492;11.548;2022-09-17T08:31:22;14.90;99.90
31391;DHT22;18022;45.492;11.548;2022-09-17T08:33:48;14.80;99.90
31391;DHT22;18022;45.492;11.548;2022-09-17T08:36:15;14.80;99.90
31391;DHT22;18022;45.492;11.548;2022-09-17T08:38:42;14.80;99.90
31391;DHT22;18022;45.492;11.548;2022-09-17T08:44:16;15.10;99.90
31391;DHT22;18022;45.492;11.548;2022-09-17T08:47:27;15.30;99.90
31391;DHT22;18022;45.492;11.548;2022-09-17T08:50:17;15.40;99.90
31391;DHT22;18022;45.492;11.548;2022-09-17T09:00:52;15.50;99.90
31391;DHT22;18022;45.492;11.548;2022-09-17T09:05:59;15.50;99.90
31391;DHT22;18022;45.492;11.548;2022-09-17T09:08:40;15.40;99.90
31391;DHT22;18022;45.492;11.548;2022-09-17T09:11:15;15.50;99.90
31391;DHT22;18022;45.492;11.548;2022-09-17T09:13:45;15.40;99.90
31391;DHT22;18022;45.492;11.548;2022-09-17T09:16:25;15.30;99.90
31391;DHT22;18022;45.492;11.548;2022-09-17T09:19:04;15.30;99.90
31391;DHT22;18022;45.492;11.548;2022-09-17T09:27:08;15.30;99.90
31391;DHT22;18022;45.492;11.548;2022-09-17T09:35:20;15.20;99.90
31391;DHT22;18022;45.492;11.548;2022-09-17T09:40:32;15.30;99.90
31391;DHT22;18022;45.492;11.548;2022-09-17T09:43:06;15.20;99.90
31391;DHT22;18022;45.492;11.548;2022-09-17T09:52:25;15.30;99.90
31391;DHT22;18022;45.492;11.548;2022-09-17T09:57:44;15.40;99.90
31391;DHT22;18022;45.492;11.548;2022-09-17T10:00:30;15.50;99.90
31391;DHT22;18022;45.492;11.548;2022-09-17T10:03:21;15.40;99.90
31391;DHT22;18022;45.492;11.548;2022-09-17T10:06:05;15.50;99.90
31391;DHT22;18022;45.492;11.548;2022-09-17T10:08:34;15.50;99.90
31391;DHT22;18022;45.492;11.548;2022-09-17T10:13:36;15.60;99.90
31391;DHT22;18022;45.492;11.548;2022-09-17T10:16:17;15.50;99.90
31391;DHT22;18022;45.492;11.548;2022-09-17T10:18:44;15.60;99.90
31391;DHT22;18022;45.492;11.548;2022-09-17T10:21:30;15.80;99.90
31391;DHT22;18022;45.492;11.548;2022-09-17T10:23:58;15.80;99.90
31391;DHT22;18022;45.492;11.548;2022-09-17T10:26:32;15.70;99.90
31391;DHT22;18022;45.492;11.548;2022-09-17T10:29:02;15.70;99.90
31391;DHT22;18022;45.492;11.548;2022-09-17T10:31:54;15.70;99.90
31391;DHT22;18022;45.492;11.548;2022-09-17T10:34:30;15.70;99.90
31391;DHT22;18022;45.492;11.548;2022-09-17T10:36:57;15.80;99.90
31391;DHT22;18022;45.492;11.548;2022-09-17T10:42:14;15.80;99.90
31391;DHT22;18022;45.492;11.548;2022-09-17T10:44:54;15.80;99.90
31391;DHT22;18022;45.492;11.548;2022-09-17T10:47:28;15.90;99.90
31391;DHT22;18022;45.492;11.548;2022-09-17T10:49:56;15.90;99.90
31391;DHT22;18022;45.492;11.548;2022-09-17T10:52:34;16.00;99.90
31391;DHT22;18022;45.492;11.548;2022-09-17T10:58:01;16.10;99.90
31391;DHT22;18022;45.492;11.548;2022-09-17T11:11:05;16.90;99.90
31391;DHT22;18022;45.492;11.548;2022-09-17T11:17:11;17.00;99.90
31391;DHT22;18022;45.492;11.548;2022-09-17T11:22:57;17.00;99.90
31391;DHT22;18022;45.492;11.548;2022-09-17T11:28:30;17.10;99.90
31391;DHT22;18022;45.492;11.548;2022-09-17T11:39:38;17.60;99.90
31391;DHT22;18022;45.492;11.548;2022-09-17T11:42:38;17.60;99.90
31391;DHT22;18022;45.492;11.548;2022-09-17T11:45:20;18.10;99.90
31391;DHT22;18022;45.492;11.548;2022-09-17T11:50:40;18.10;99.90
31391;DHT22;18022;45.492;11.548;2022-09-17T11:55:45;18.90;99.90
31391;DHT22;18022;45.492;11.548;2022-09-17T11:58:45;19.10;99.90
31391;DHT22;18022;45.492;11.548;2022-09-17T12:03:54;19.10;99.90
31391;DHT22;18022;45.492;11.548;2022-09-17T12:06:36;19.00;99.90
31391;DHT22;18022;45.492;11.548;2022-09-17T12:09:14;19.20;99.90
31391;DHT22;18022;45.492;11.548;2022-09-17T12:16:49;19.60;99.90
31391;DHT22;18022;45.492;11.548;2022-09-17T12:19:21;19.80;99.90
31391;DHT22;18022;45.492;11.548;2022-09-17T12:22:08;19.90;99.90
31391;DHT22;18022;45.492;11.548;2022-09-17T12:24:37;19.40;99.90
31391;DHT22;18022;45.492;11.548;2022-09-17T12:43:54;18.90;99.90
31391;DHT22;18022;45.492;11.548;2022-09-17T12:57:24;18.80;99.90
31391;DHT22;18022;45.492;11.548;2022-09-17T13:00:04;18.60;99.90
31391;DHT22;18022;45.492;11.548;2022-09-17T13:17:17;19.50;99.90
31391;DHT22;18022;45.492;11.548;2022-09-17T13:22:44;21.00;99.90
31391;DHT22;18022;45.492;11.548;2022-09-17T13:25:12;20.60;99.90
31391;DHT22;18022;45.492;11.548;2022-09-17T13:27:39;20.40;99.90
31391;DHT22;18022;45.492;11.548;2022-09-17T13:30:10;20.10;99.90
31391;DHT22;18022;45.492;11.548;2022-09-17T13:37:41;19.60;99.90
31391;DHT22;18022;45.492;11.548;2022-09-17T13:45:31;20.00;99.90
31391;DHT22;18022;45.492;11.548;2022-09-17T13:48:09;20.00;99.90
31391;DHT22;18022;45.492;11.548;2022-09-17T13:50:42;19.90;99.90
31391;DHT22;18022;45.492;11.548;2022-09-17T14:13:52;19.50;99.90
31391;DHT22;18022;45.492;11.548;2022-09-17T14:22:07;19.00;99.90
31391;DHT22;18022;45.492;11.548;2022-09-17T14:35:21;18.30;99.90
31391;DHT22;18022;45.492;11.548;2022-09-17T14:37:57;18.40;99.90
31391;DHT22;18022;45.492;11.548;2022-09-17T14:40:25;18.70;99.90
31391;DHT22;18022;45.492;11.548;2022-09-17T14:42:54;18.80;99.90
31391;DHT22;18022;45.492;11.548;2022-09-17T14:45:35;19.10;99.90
31391;DHT22;18022;45.492;11.548;2022-09-17T14:48:38;19.00;99.90
31391;DHT22;18022;45.492;11.548;2022-09-17T14:54:05;19.10;99.90
31391;DHT22;18022;45.492;11.548;2022-09-17T14:56:52;19.10;99.90
31391;DHT22;18022;45.492;11.548;2022-09-17T14:59:22;19.20;99.90
31391;DHT22;18022;45.492;11.548;2022-09-17T15:01:50;19.00;99.90
31391;DHT22;18022;45.492;11.548;2022-09-17T15:04:26;19.00;99.90
31391;DHT22;18022;45.492;11.548;2022-09-17T15:07:05;19.00;99.90
31391;DHT22;18022;45.492;11.548;2022-09-17T15:09:31;18.90;99.90
31391;DHT22;18022;45.492;11.548;2022-09-17T15:11:58;18.90;99.90
31391;DHT22;18022;45.492;11.548;2022-09-17T15:14:30;19.00;99.90
31391;DHT22;18022;45.492;11.548;2022-09-17T15:16:58;19.00;99.90
31391;DHT22;18022;45.492;11.548;2022-09-17T15:19:38;19.10;99.90
31391;DHT22;18022;45.492;11.548;2022-09-17T15:22:13;19.10;99.90
31391;DHT22;18022;45.492;11.548;2022-09-17T15:29:52;19.00;99.90
31391;DHT22;18022;45.492;11.548;2022-09-17T15:32:19;18.80;99.90
31391;DHT22;18022;45.492;11.548;2022-09-17T15:37:33;18.80;99.90
31391;DHT22;18022;45.492;11.548;2022-09-17T15:40:12;18.70;99.90
31391;DHT22;18022;45.492;11.548;2022-09-17T15:42:38;18.70;99.90
31391;DHT22;18022;45.492;11.548;2022-09-17T15:45:30;18.80;99.90
31391;DHT22;18022;45.492;11.548;2022-09-17T15:47:58;18.90;99.90
31391;DHT22;18022;45.492;11.548;2022-09-17T15:50:32;18.70;99.90
31391;DHT22;18022;45.492;11.548;2022-09-17T15:55:36;18.80;99.90
31391;DHT22;18022;45.492;11.548;2022-09-17T15:58:28;18.60;99.90
31391;DHT22;18022;45.492;11.548;2022-09-17T16:08:59;18.60;99.90
31391;DHT22;18022;45.492;11.548;2022-09-17T16:11:34;18.50;99.90
31391;DHT22;18022;45.492;11.548;2022-09-17T16:14:00;18.50;99.90
31391;DHT22;18022;45.492;11.548;2022-09-17T16:16:36;18.50;99.90
31391;DHT22;18022;45.492;11.548;2022-09-17T16:19:03;18.40;99.90
31391;DHT22;18022;45.492;11.548;2022-09-17T16:21:29;18.30;99.90
31391;DHT22;18022;45.492;11.548;2022-09-17T16:23:55;18.30;99.90
31391;DHT22;18022;45.492;11.548;2022-09-17T16:26:28;18.20;99.90
31391;DHT22;18022;45.492;11.548;2022-09-17T16:28:58;18.20;99.90
31391;DHT22;18022;45.492;11.548;2022-09-17T16:31:24;18.10;99.90
31391;DHT22;18022;45.492;11.548;2022-09-17T16:33:50;18.10;99.90
31391;DHT22;18022;45.492;11.548;2022-09-17T16:36:16;18.10;99.90
31391;DHT22;18022;45.492;11.548;2022-09-17T16:38:42;18.00;99.90
31391;DHT22;18022;45.492;11.548;2022-09-17T16:41:09;18.00;99.90
31391;DHT22;18022;45.492;11.548;2022-09-17T16:43:36;17.90;99.90
31391;DHT22;18022;45.492;11.548;2022-09-17T16:46:05;17.90;99.90
31391;DHT22;18022;45.492;11.548;2022-09-17T16:48:31;17.60;99.90
31391;DHT22;18022;45.492;11.548;2022-09-17T16:50:57;17.70;99.90
31391;DHT22;18022;45.492;11.548;2022-09-17T16:53:24;17.80;99.90
31391;DHT22;18022;45.492;11.548;2022-09-17T16:55:50;17.80;99.90
31391;DHT22;18022;45.492;11.548;2022-09-17T16:58:15;17.70;99.90
31391;DHT22;18022;45.492;11.548;2022-09-17T17:00:42;17.70;99.90
31391;DHT22;18022;45.492;11.548;2022-09-17T17:03:11;17.70;99.90
31391;DHT22;18022;45.492;11.548;2022-09-17T17:05:37;17.80;99.90
31391;DHT22;18022;45.492;11.548;2022-09-17T17:08:03;17.60;99.90
31391;DHT22;18022;45.492;11.548;2022-09-17T17:10:29;17.60;99.90
31391;DHT22;18022;45.492;11.548;2022-09-17T17:12:55;17.50;99.90
31391;DHT22;18022;45.492;11.548;2022-09-17T17:15:22;17.40;99.90
31391;DHT22;18022;45.492;11.548;2022-09-17T17:17:48;17.50;99.90
31391;DHT22;18022;45.492;11.548;2022-09-17T17:20:14;17.40;99.90
31391;DHT22;18022;45.492;11.548;2022-09-17T17:22:41;17.30;99.90
31391;DHT22;18022;45.492;11.548;2022-09-17T17:25:09;17.40;99.90
31391;DHT22;18022;45.492;11.548;2022-09-17T17:27:35;17.40;99.90
31391;DHT22;18022;45.492;11.548;2022-09-17T17:30:04;17.30;99.90
31391;DHT22;18022;45.492;11.548;2022-09-17T17:32:32;17.30;99.90
31391;DHT22;18022;45.492;11.548;2022-09-17T17:34:58;17.40;99.90
31391;DHT22;18022;45.492;11.548;2022-09-17T17:37:24;17.30;99.90
31391;DHT22;18022;45.492;11.548;2022-09-17T17:39:50;17.50;99.90
31391;DHT22;18022;45.492;11.548;2022-09-17T17:42:16;17.50;99.90
31391;DHT22;18022;45.492;11.548;2022-09-17T17:44:41;17.40;99.90
31391;DHT22;18022;45.492;11.548;2022-09-17T17:47:07;17.40;99.90
31391;DHT22;18022;45.492;11.548;2022-09-17T17:49:33;17.30;99.90
31391;DHT22;18022;45.492;11.548;2022-09-17T17:51:59;17.30;99.90
31391;DHT22;18022;45.492;11.548;2022-09-17T17:54:25;17.10;99.90
31391;DHT22;18022;45.492;11.548;2022-09-17T17:56:53;17.00;99.90
31391;DHT22;18022;45.492;11.548;2022-09-17T17:59:19;16.90;99.90
31391;DHT22;18022;45.492;11.548;2022-09-17T18:01:45;16.90;99.90
31391;DHT22;18022;45.492;11.548;2022-09-17T18:04:11;16.80;99.90
31391;DHT22;18022;45.492;11.548;2022-09-17T18:06:37;16.90;99.90
31391;DHT22;18022;45.492;11.548;2022-09-17T18:09:04;16.90;99.90
31391;DHT22;18022;45.492;11.548;2022-09-17T18:11:31;16.90;99.90
31391;DHT22;18022;45.492;11.548;2022-09-17T18:13:58;16.80;99.90
31391;DHT22;18022;45.492;11.548;2022-09-17T18:16:25;16.90;99.90
31391;DHT22;18022;45.492;11.548;2022-09-17T18:18:51;16.90;99.90
31391;DHT22;18022;45.492;11.548;2022-09-17T18:21:19;16.80;99.90
31391;DHT22;18022;45.492;11.548;2022-09-17T18:23:46;16.70;99.90
31391;DHT22;18022;45.492;11.548;2022-09-17T18:26:20;16.70;99.90
31391;DHT22;18022;45.492;11.548;2022-09-17T18:28:47;16.80;99.90
31391;DHT22;18022;45.492;11.548;2022-09-17T18:33:44;16.90;99.90
31391;DHT22;18022;45.492;11.548;2022-09-17T18:36:10;16.90;99.90
31391;DHT22;18022;45.492;11.548;2022-09-17T18:38:36;16.90;99.90
31391;DHT22;18022;45.492;11.548;2022-09-17T18:41:06;16.90;99.90
31391;DHT22;18022;45.492;11.548;2022-09-17T18:43:33;17.00;99.90
31391;DHT22;18022;45.492;11.548;2022-09-17T18:45:59;17.00;99.90
31391;DHT22;18022;45.492;11.548;2022-09-17T18:48:25;17.00;99.90
31391;DHT22;18022;45.492;11.548;2022-09-17T18:50:59;17.00;99.90
31391;DHT22;18022;45.492;11.548;2022-09-17T18:53:27;16.90;99.90
31391;DHT22;18022;45.492;11.548;2022-09-17T18:55:58;16.80;99.90
31391;DHT22;18022;45.492;11.548;2022-09-17T18:58:27;16.70;99.90
31391;DHT22;18022;45.492;11.548;2022-09-17T19:00:52;16.70;99.90
31391;DHT22;18022;45.492;11.548;2022-09-17T19:03:18;16.80;99.90
31391;DHT22;18022;45.492;11.548;2022-09-17T19:05:44;16.80;99.90
31391;DHT22;18022;45.492;11.548;2022-09-17T19:08:10;16.80;99.90
31391;DHT22;18022;45.492;11.548;2022-09-17T19:10:35;16.70;99.90
31391;DHT22;18022;45.492;11.548;2022-09-17T19:13:01;16.50;99.90
31391;DHT22;18022;45.492;11.548;2022-09-17T19:15:28;16.60;99.90
31391;DHT22;18022;45.492;11.548;2022-09-17T19:17:54;16.60;99.90
31391;DHT22;18022;45.492;11.548;2022-09-17T19:20:20;16.50;99.90
31391;DHT22;18022;45.492;11.548;2022-09-17T19:22:50;16.60;99.90
31391;DHT22;18022;45.492;11.548;2022-09-17T19:25:17;16.50;99.90
31391;DHT22;18022;45.492;11.548;2022-09-17T19:27:45;16.50;99.90
31391;DHT22;18022;45.492;11.548;2022-09-17T19:30:11;16.50;99.90
31391;DHT22;18022;45.492;11.548;2022-09-17T19:32:37;16.60;99.90
31391;DHT22;18022;45.492;11.548;2022-09-17T19:35:03;16.70;99.90
31391;DHT22;18022;45.492;11.548;2022-09-17T19:37:29;16.70;99.90
31391;DHT22;18022;45.492;11.548;2022-09-17T19:39:55;16.60;99.90
31391;DHT22;18022;45.492;11.548;2022-09-17T19:42:21;16.60;99.90
31391;DHT22;18022;45.492;11.548;2022-09-17T19:44:47;16.50;99.90
31391;DHT22;18022;45.492;11.548;2022-09-17T19:47:13;16.70;99.90
31391;DHT22;18022;45.492;11.548;2022-09-17T19:49:39;16.60;99.90
31391;DHT22;18022;45.492;11.548;2022-09-17T19:52:05;16.60;99.90
31391;DHT22;18022;45.492;11.548;2022-09-17T19:54:30;16.60;99.90
31391;DHT22;18022;45.492;11.548;2022-09-17T19:56:56;16.60;99.90
31391;DHT22;18022;45.492;11.548;2022-09-17T19:59:22;16.60;99.90
31391;DHT22;18022;45.492;11.548;2022-09-17T20:01:48;16.60;99.90
31391;DHT22;18022;45.492;11.548;2022-09-17T20:04:14;16.60;99.90
31391;DHT22;18022;45.492;11.548;2022-09-17T20:06:39;16.60;99.90
31391;DHT22;18022;45.492;11.548;2022-09-17T20:09:05;16.50;99.90
31391;DHT22;18022;45.492;11.548;2022-09-17T20:11:31;16.60;99.90
31391;DHT22;18022;45.492;11.548;2022-09-17T20:14:01;16.70;99.90
31391;DHT22;18022;45.492;11.548;2022-09-17T20:16:31;16.60;99.90
31391;DHT22;18022;45.492;11.548;2022-09-17T20:18:58;16.60;99.90
31391;DHT22;18022;45.492;11.548;2022-09-17T20:21:26;16.70;99.90
31391;DHT22;18022;45.492;11.548;2022-09-17T20:23:52;16.60;99.90
31391;DHT22;18022;45.492;11.548;2022-09-17T20:26:19;16.70;99.90
31391;DHT22;18022;45.492;11.548;2022-09-17T20:28:46;16.80;99.90
31391;DHT22;18022;45.492;11.548;2022-09-17T20:31:15;16.70;99.90
31391;DHT22;18022;45.492;11.548;2022-09-17T20:33:41;16.70;99.90
31391;DHT22;18022;45.492;11.548;2022-09-17T20:36:11;16.70;99.90
31391;DHT22;18022;45.492;11.548;2022-09-17T20:38:37;16.70;99.90
31391;DHT22;18022;45.492;11.548;2022-09-17T20:41:05;16.70;99.90
31391;DHT22;18022;45.492;11.548;2022-09-17T20:43:39;16.70;99.90
31391;DHT22;18022;45.492;11.548;2022-09-17T20:46:06;16.60;99.90
31391;DHT22;18022;45.492;11.548;2022-09-17T20:48:33;16.40;99.90
31391;DHT22;18022;45.492;11.548;2022-09-17T20:51:04;16.50;99.90
31391;DHT22;18022;45.492;11.548;2022-09-17T20:53:32;16.60;99.90
31391;DHT22;18022;45.492;11.548;2022-09-17T20:56:01;16.60;99.90
31391;DHT22;18022;45.492;11.548;2022-09-17T20:58:28;16.60;99.90
31391;DHT22;18022;45.492;11.548;2022-09-17T21:01:08;16.50;99.90
31391;DHT22;18022;45.492;11.548;2022-09-17T21:03:38;16.60;99.90
31391;DHT22;18022;45.492;11.548;2022-09-17T21:06:04;16.70;99.90
31391;DHT22;18022;45.492;11.548;2022-09-17T21:08:30;16.60;99.90
31391;DHT22;18022;45.492;11.548;2022-09-17T21:10:56;16.60;99.90
31391;DHT22;18022;45.492;11.548;2022-09-17T21:13:22;16.50;99.90
31391;DHT22;18022;45.492;11.548;2022-09-17T21:15:58;16.60;99.90
31391;DHT22;18022;45.492;11.548;2022-09-17T21:18:24;16.60;99.90
31391;DHT22;18022;45.492;11.548;2022-09-17T21:20:50;16.60;99.90
31391;DHT22;18022;45.492;11.548;2022-09-17T21:23:19;16.60;99.90
31391;DHT22;18022;45.492;11.548;2022-09-17T21:25:46;16.70;99.90
31391;DHT22;18022;45.492;11.548;2022-09-17T21:28:12;16.60;99.90
31391;DHT22;18022;45.492;11.548;2022-09-17T21:30:37;16.40;99.90
31391;DHT22;18022;45.492;11.548;2022-09-17T21:33:03;16.20;99.90
31391;DHT22;18022;45.492;11.548;2022-09-17T21:35:29;16.20;99.90
31391;DHT22;18022;45.492;11.548;2022-09-17T21:37:57;16.20;99.90
31391;DHT22;18022;45.492;11.548;2022-09-17T21:40:23;16.00;99.90
31391;DHT22;18022;45.492;11.548;2022-09-17T21:42:48;15.80;99.90
31391;DHT22;18022;45.492;11.548;2022-09-17T21:45:14;15.90;99.90
31391;DHT22;18022;45.492;11.548;2022-09-17T21:47:40;15.90;99.90
31391;DHT22;18022;45.492;11.548;2022-09-17T21:50:06;15.90;99.90
31391;DHT22;18022;45.492;11.548;2022-09-17T21:52:32;15.70;99.90
31391;DHT22;18022;45.492;11.548;2022-09-17T21:55:00;15.70;99.90
31391;DHT22;18022;45.492;11.548;2022-09-17T21:57:26;15.60;99.90
31391;DHT22;18022;45.492;11.548;2022-09-17T21:59:52;15.50;99.90
31391;DHT22;18022;45.492;11.548;2022-09-17T22:02:18;15.70;99.90
31391;DHT22;18022;45.492;11.548;2022-09-17T22:04:43;15.50;99.90
31391;DHT22;18022;45.492;11.548;2022-09-17T22:07:09;15.40;99.90
31391;DHT22;18022;45.492;11.548;2022-09-17T22:09:35;15.50;99.90
31391;DHT22;18022;45.492;11.548;2022-09-17T22:12:00;15.50;99.90
31391;DHT22;18022;45.492;11.548;2022-09-17T22:14:27;15.30;99.90
31391;DHT22;18022;45.492;11.548;2022-09-17T22:16:54;15.10;99.90
31391;DHT22;18022;45.492;11.548;2022-09-17T22:19:22;15.30;99.90
31391;DHT22;18022;45.492;11.548;2022-09-17T22:21:50;15.60;99.90
31391;DHT22;18022;45.492;11.548;2022-09-17T22:24:17;15.50;99.90
31391;DHT22;18022;45.492;11.548;2022-09-17T22:26:46;15.00;99.90
31391;DHT22;18022;45.492;11.548;2022-09-17T22:29:18;14.90;99.90
31391;DHT22;18022;45.492;11.548;2022-09-17T22:31:45;15.10;99.90
31391;DHT22;18022;45.492;11.548;2022-09-17T22:34:14;14.90;99.90
31391;DHT22;18022;45.492;11.548;2022-09-17T22:36:41;14.80;99.90
31391;DHT22;18022;45.492;11.548;2022-09-17T22:39:07;14.90;99.90
31391;DHT22;18022;45.492;11.548;2022-09-17T22:41:34;14.90;99.90
31391;DHT22;18022;45.492;11.548;2022-09-17T22:44:06;14.60;99.90
31391;DHT22;18022;45.492;11.548;2022-09-17T22:46:33;14.40;99.90
31391;DHT22;18022;45.492;11.548;2022-09-17T22:48:59;14.20;99.90
31391;DHT22;18022;45.492;11.548;2022-09-17T22:51:26;14.20;99.90
31391;DHT22;18022;45.492;11.548;2022-09-17T22:53:53;14.20;99.90
31391;DHT22;18022;45.492;11.548;2022-09-17T22:56:21;14.20;99.90
31391;DHT22;18022;45.492;11.548;2022-09-17T22:58:48;14.10;99.90
31391;DHT22;18022;45.492;11.548;2022-09-17T23:01:20;14.20;99.90
31391;DHT22;18022;45.492;11.548;2022-09-17T23:03:47;14.20;99.90
31391;DHT22;18022;45.492;11.548;2022-09-17T23:06:15;14.30;99.90
31391;DHT22;18022;45.492;11.548;2022-09-17T23:08:42;14.30;99.90
31391;DHT22;18022;45.492;11.548;2022-09-17T23:11:15;14.40;99.90
31391;DHT22;18022;45.492;11.548;2022-09-17T23:13:41;14.20;99.90
31391;DHT22;18022;45.492;11.548;2022-09-17T23:16:08;14.10;99.90
31391;DHT22;18022;45.492;11.548;2022-09-17T23:18:34;14.10;99.90
31391;DHT22;18022;45.492;11.548;2022-09-17T23:21:06;14.10;99.90
31391;DHT22;18022;45.492;11.548;2022-09-17T23:23:33;14.00;99.90
31391;DHT22;18022;45.492;11.548;2022-09-17T23:26:04;13.90;99.90
31391;DHT22;18022;45.492;11.548;2022-09-17T23:28:29;13.70;99.90
31391;DHT22;18022;45.492;11.548;2022-09-17T23:30:55;13.50;99.90
31391;DHT22;18022;45.492;11.548;2022-09-17T23:33:21;13.40;99.90
31391;DHT22;18022;45.492;11.548;2022-09-17T23:35:47;13.50;99.90
31391;DHT22;18022;45.492;11.548;2022-09-17T23:38:12;13.40;99.90
31391;DHT22;18022;45.492;11.548;2022-09-17T23:40:38;13.30;99.90
31391;DHT22;18022;45.492;11.548;2022-09-17T23:43:04;13.40;99.90
31391;DHT22;18022;45.492;11.548;2022-09-17T23:45:30;13.50;99.90
31391;DHT22;18022;45.492;11.548;2022-09-17T23:47:56;13.40;99.90
31391;DHT22;18022;45.492;11.548;2022-09-17T23:50:21;13.50;99.90
31391;DHT22;18022;45.492;11.548;2022-09-17T23:52:47;13.50;99.90
31391;DHT22;18022;45.492;11.548;2022-09-17T23:55:13;13.60;99.90
31391;DHT22;18022;45.492;11.548;2022-09-17T23:57:38;13.60;99.90
